Time;durP1;ratioP1;P1;durP2;ratioP2;P2;SDS_P1;SDS_P2;PMS_P1;PMS_P2;Temp;Humidity;BMP_temperature;BMP_pressure;BME280_temperature;BME280_humidity;BME280_pressure;Samples;Min_cycle;Max_cycle;Signal;HPM_P1;HPM_P2
2023/03/12 00:01:25;;;;;;;25.42;20.42;;;;;;;-4.03;72.15;99956.88;4975024;28;20058;-75
2023/03/12 00:03:52;;;;;;;22.20;17.35;;;;;;;-3.98;71.53;99946.41;4976280;28;20130;-77
2023/03/12 00:06:20;;;;;;;18.65;13.65;;;;;;;-3.87;71.75;99956.69;4974887;28;20038;-75
2023/03/12 00:08:46;;;;;;;19.73;14.82;;;;;;;-3.96;71.99;99955.91;4974613;28;20449;-75
2023/03/12 00:11:15;;;;;;;21.75;15.27;;;;;;;-4.09;72.50;99958.72;4975778;28;20035;-75
2023/03/12 00:13:42;;;;;;;20.17;15.30;;;;;;;-4.04;72.38;99959.50;4958572;28;20054;-76
2023/03/12 00:16:10;;;;;;;19.08;16.35;;;;;;;-4.10;72.75;99962.19;4975898;28;20078;-75
2023/03/12 00:18:36;;;;;;;24.38;19.33;;;;;;;-4.11;72.31;99965.69;4958478;28;20085;-76
2023/03/12 00:21:02;;;;;;;25.65;19.88;;;;;;;-4.03;72.05;99984.72;4975722;28;20522;-75
2023/03/12 00:23:28;;;;;;;22.60;17.67;;;;;;;-4.05;72.36;99981.28;4974346;28;20129;-75
2023/03/12 00:26:02;;;;;;;23.02;16.88;;;;;;;-4.19;73.05;99976.19;4990708;28;20046;-76
2023/03/12 00:28:28;;;;;;;22.98;16.38;;;;;;;-4.12;72.85;99984.84;4974872;28;20071;-75
2023/03/12 00:30:54;;;;;;;22.60;15.95;;;;;;;-4.11;73.22;99987.44;4974113;28;20126;-76
2023/03/12 00:33:20;;;;;;;18.73;14.27;;;;;;;-4.17;73.17;99982.28;4974405;28;20039;-76
2023/03/12 00:35:46;;;;;;;20.52;15.13;;;;;;;-4.12;73.10;99995.28;4990368;28;20498;-76
2023/03/12 00:38:12;;;;;;;18.65;15.48;;;;;;;-4.09;73.18;99996.13;4973286;28;20038;-76
2023/03/12 00:40:38;;;;;;;19.05;15.13;;;;;;;-4.09;72.85;100005.69;4974240;28;20046;-76
2023/03/12 00:43:04;;;;;;;22.33;16.08;;;;;;;-4.15;73.18;99998.78;4974497;28;20038;-76
2023/03/12 00:45:30;;;;;;;23.15;15.75;;;;;;;-4.09;72.81;100003.94;4958019;28;20051;-75
2023/03/12 00:47:56;;;;;;;19.02;15.82;;;;;;;-4.03;72.45;99989.94;4974052;28;20038;-74
2023/03/12 00:50:22;;;;;;;18.38;15.18;;;;;;;-3.94;72.70;100000.31;4957934;28;20045;-76
2023/03/12 00:52:48;;;;;;;21.45;16.33;;;;;;;-3.83;72.03;100001.06;4973657;28;20047;-76
2023/03/12 00:55:14;;;;;;;17.80;13.40;;;;;;;-3.76;71.97;99996.63;4990772;28;20042;-75
2023/03/12 00:57:40;;;;;;;20.50;13.48;;;;;;;-3.74;71.82;100002.69;4974027;28;20138;-74
2023/03/12 01:00:09;;;;;;;18.90;13.10;;;;;;;-3.67;71.76;99999.13;4973845;28;20042;-76
2023/03/12 01:02:35;;;;;;;;;;;;;;;-3.62;71.53;99999.06;4974568;28;20050;-74
2023/03/12 01:05:02;;;;;;;16.80;10.45;;;;;;;-3.62;71.43;99996.47;4974925;28;20297;-76
2023/03/12 01:07:28;;;;;;;17.95;11.38;;;;;;;-3.58;71.33;99998.16;4989941;28;20054;-76
2023/03/12 01:09:54;;;;;;;15.55;10.90;;;;;;;-3.56;70.95;99996.41;4975017;28;20042;-76
2023/03/12 01:12:20;;;;;;;28.23;11.30;;;;;;;-3.52;70.81;99992.88;4973555;28;20414;-76
2023/03/12 01:14:46;;;;;;;23.70;10.80;;;;;;;-3.44;70.72;100006.69;4973567;28;20038;-76
2023/03/12 01:17:11;;;;;;;25.08;11.25;;;;;;;-3.42;70.54;100010.16;4957491;28;20042;-76
2023/03/12 01:19:37;;;;;;;20.98;10.48;;;;;;;-3.36;70.78;100014.44;4974697;28;20144;-75
2023/03/12 01:22:03;;;;;;;22.38;10.27;;;;;;;-3.33;70.20;100009.19;4941520;28;20125;-76
2023/03/12 01:24:29;;;;;;;41.10;12.30;;;;;;;-3.32;70.54;100005.66;4974356;28;20133;-76
2023/03/12 01:26:55;;;;;;;27.63;10.55;;;;;;;-3.29;70.37;100006.50;4957291;28;20185;-74
2023/03/12 01:29:21;;;;;;;29.88;11.60;;;;;;;-3.25;70.43;100012.56;4973617;28;20070;-75
2023/03/12 01:31:47;;;;;;;29.52;10.98;;;;;;;-3.25;70.35;100012.56;4972831;28;20039;-75
2023/03/12 01:34:13;;;;;;;27.75;10.90;;;;;;;-3.24;70.08;100004.66;4957017;28;20050;-76
2023/03/12 01:36:39;;;;;;;26.05;10.15;;;;;;;-3.28;70.06;100003.00;4957042;28;20053;-77
2023/03/12 01:39:05;;;;;;;18.75;10.90;;;;;;;-3.22;70.02;100013.38;4989386;28;20490;-75
2023/03/12 01:41:32;;;;;;;28.13;10.63;;;;;;;-3.22;69.66;100018.59;4973107;28;20050;-76
2023/03/12 01:44:02;;;;;;;16.63;9.73;;;;;;;-3.21;69.98;100025.56;4957120;28;20136;-76
2023/03/12 01:46:32;;;;;;;;;;;;;;;-3.17;69.72;100023.75;4973510;28;20050;-75
2023/03/12 01:49:10;;;;;;;22.65;9.23;;;;;;;-3.20;69.55;100027.31;4989092;28;20028;-76
2023/03/12 01:51:57;;;;;;;23.25;9.88;;;;;;;-3.24;69.34;100024.72;4989377;28;20057;-76
2023/03/12 01:54:38;;;;;;;21.00;9.25;;;;;;;-3.26;69.54;100029.13;4966410;28;20050;-75
2023/03/12 01:57:10;;;;;;;26.30;11.38;;;;;;;-3.25;69.80;100036.94;4956891;28;20038;-76
2023/03/12 01:59:50;;;;;;;19.17;9.05;;;;;;;-3.24;69.58;100036.06;4957108;28;20047;-76
2023/03/12 02:02:18;;;;;;;24.55;9.52;;;;;;;-3.24;69.26;100038.66;4956859;28;20064;-76
2023/03/12 02:04:46;;;;;;;15.10;7.47;;;;;;;-3.26;69.16;100027.38;4972714;28;20494;-77
2023/03/12 02:07:15;;;;;;;12.57;7.05;;;;;;;-3.22;69.24;100029.06;4972831;28;20050;-77
2023/03/12 02:09:44;;;;;;;15.73;6.72;;;;;;;-3.23;69.14;100031.72;4972760;28;20518;-75
2023/03/12 02:12:11;;;;;;;10.02;6.70;;;;;;;-3.23;69.28;100032.56;4956700;28;20093;-76
2023/03/12 02:14:37;;;;;;;13.50;6.20;;;;;;;-3.24;69.07;100036.06;4972699;28;20053;-76
2023/03/12 02:17:04;;;;;;;9.95;6.22;;;;;;;-3.25;68.68;100036.94;4972650;28;20039;-76
2023/03/12 02:19:51;;;;;;;9.30;5.43;;;;;;;-3.24;68.78;100046.50;4988812;28;20046;-77
2023/03/12 02:22:19;;;;;;;9.10;5.22;;;;;;;-3.25;68.54;100038.69;4973643;28;20050;-76
2023/03/12 02:24:56;;;;;;;54.63;8.43;;;;;;;-3.29;68.49;100029.16;4988844;28;20069;-76
2023/03/12 02:27:22;;;;;;;7.03;5.32;;;;;;;-3.27;68.69;100033.50;4957038;28;20073;-77
2023/03/12 02:29:49;;;;;;;7.93;5.40;;;;;;;-3.28;68.56;100034.34;4956814;28;20134;-76
2023/03/12 02:32:23;;;;;;;8.07;5.10;;;;;;;-3.28;68.77;100042.19;4973890;28;20114;-77
2023/03/12 02:34:50;;;;;;;7.93;5.30;;;;;;;-3.23;68.37;100037.81;4956563;28;20134;-77
2023/03/12 02:37:17;;;;;;;8.25;5.00;;;;;;;-3.18;68.57;100038.59;4988800;28;20053;-76
2023/03/12 02:39:50;;;;;;;6.90;4.68;;;;;;;-3.18;68.28;100043.81;4940502;28;20082;-77
2023/03/12 02:42:16;;;;;;;6.50;4.53;;;;;;;-3.12;68.12;100044.63;4972817;28;20043;-76
2023/03/12 02:44:42;;;;;;;5.05;4.53;;;;;;;-3.07;68.26;100042.81;4972241;28;20354;-77
2023/03/12 02:47:08;;;;;;;6.45;3.88;;;;;;;-3.04;68.23;100053.25;4956279;28;20046;-76
2023/03/12 02:49:34;;;;;;;5.60;4.40;;;;;;;-2.96;68.24;100049.63;4973737;28;20038;-76
2023/03/12 02:52:02;;;;;;;7.40;4.43;;;;;;;-2.93;67.55;100051.34;4973626;28;20494;-77
2023/03/12 02:54:28;;;;;;;6.80;4.65;;;;;;;-2.87;67.57;100038.16;4956464;28;20553;-77
2023/03/12 02:56:54;;;;;;;7.25;4.25;;;;;;;-2.83;68.24;100034.63;4972762;28;20043;-89
2023/03/12 02:59:24;;;;;;;5.05;4.18;;;;;;;-2.78;67.67;100032.81;4956459;28;20417;-75
2023/03/12 03:01:54;;;;;;;5.57;4.28;;;;;;;-2.67;67.89;100042.25;4958974;28;20054;-76
2023/03/12 03:04:20;;;;;;;7.40;4.70;;;;;;;-2.57;67.34;100038.59;4942967;28;20055;-75
2023/03/12 03:06:47;;;;;;;62.30;10.25;;;;;;;-2.53;67.16;100045.53;4958703;28;20066;-75
2023/03/12 03:09:13;;;;;;;5.38;4.30;;;;;;;-2.39;67.12;100047.94;4958843;28;20055;-76
2023/03/12 03:11:40;;;;;;;4.97;4.18;;;;;;;-2.25;66.65;100041.59;4926922;28;20043;-77
2023/03/12 03:14:10;;;;;;;8.15;4.90;;;;;;;-2.21;66.34;100048.50;4958498;28;20065;-75
2023/03/12 03:16:36;;;;;;;6.05;4.28;;;;;;;-2.18;65.90;100049.31;4958113;28;20089;-76
2023/03/12 03:19:03;;;;;;;8.18;4.35;;;;;;;-2.05;66.01;100048.22;4958373;28;20120;-75
2023/03/12 03:21:30;;;;;;;5.90;4.38;;;;;;;-1.94;65.87;100051.53;4942292;28;20074;-75
2023/03/12 03:23:56;;;;;;;12.05;4.50;;;;;;;-1.85;65.67;100048.72;4942449;28;20485;-74
2023/03/12 03:26:23;;;;;;;4.47;4.05;;;;;;;-1.76;65.29;100034.59;4958508;28;20050;-80
2023/03/12 03:28:50;;;;;;;6.22;4.53;;;;;;;-1.65;64.98;100047.50;4958381;28;20568;-76
2023/03/12 03:31:16;;;;;;;7.25;4.00;;;;;;;-1.54;64.71;100054.28;4943359;28;20146;-78
2023/03/12 03:33:43;;;;;;;4.47;3.72;;;;;;;-1.52;64.49;100059.47;4960597;28;20043;-76
2023/03/12 03:36:13;;;;;;;5.18;4.28;;;;;;;-1.41;64.97;100051.41;4991754;28;20047;-77
2023/03/12 03:38:48;;;;;;;6.18;4.25;;;;;;;-1.23;64.55;100065.00;4959295;28;20522;-78
2023/03/12 03:41:19;;;;;;;4.72;4.22;;;;;;;-1.15;64.49;100064.84;4974764;28;20046;-74
2023/03/12 03:43:45;;;;;;;5.22;4.22;;;;;;;-0.98;64.34;100067.09;4975263;28;20081;-77
2023/03/12 03:46:13;;;;;;;5.78;4.30;;;;;;;-0.88;63.23;100058.16;4975369;28;20110;-76
2023/03/12 03:48:43;;;;;;;4.45;3.90;;;;;;;-0.95;62.61;100067.03;4991330;28;20042;-77
2023/03/12 03:51:10;;;;;;;6.60;4.13;;;;;;;-0.90;62.40;100057.34;4974580;28;20054;-76
2023/03/12 03:53:40;;;;;;;3.92;3.50;;;;;;;-0.75;62.50;100074.50;4958850;28;20053;-78
2023/03/12 03:56:14;;;;;;;8.15;3.95;;;;;;;-0.64;62.44;100061.09;4942196;28;20045;-77
2023/03/12 03:58:44;;;;;;;4.07;3.63;;;;;;;-0.52;62.20;100060.84;4974789;28;20042;-74
2023/03/12 04:01:15;;;;;;;5.20;4.22;;;;;;;-0.47;61.66;100069.47;4974385;28;20474;-76
2023/03/12 04:03:42;;;;;;;4.85;4.20;;;;;;;-0.48;60.66;100070.38;4990725;28;20105;-76
2023/03/12 04:06:08;;;;;;;8.68;3.63;;;;;;;-0.38;60.44;100081.50;4974614;28;20141;-77
2023/03/12 04:08:36;;;;;;;4.70;4.25;;;;;;;-0.35;60.67;100074.44;4958293;28;20046;-75
2023/03/12 04:11:29;;;;;;;7.05;4.60;;;;;;;-0.20;60.21;100088.09;4958184;28;20051;-77
2023/03/12 04:13:57;;;;;;;5.55;3.92;;;;;;;-0.22;59.65;100088.16;4988841;28;20050;-79
2023/03/12 04:16:26;;;;;;;4.65;4.15;;;;;;;-0.05;60.52;100095.63;4990282;28;20050;-75
2023/03/12 04:18:53;;;;;;;6.63;4.55;;;;;;;0.06;59.82;100090.94;4990371;28;20053;-77
2023/03/12 04:21:20;;;;;;;5.35;4.28;;;;;;;0.23;59.64;100099.28;4989284;28;20498;-75
2023/03/12 04:23:48;;;;;;;5.47;4.10;;;;;;;0.40;59.14;100095.34;4974132;28;20081;-79
2023/03/12 04:26:14;;;;;;;6.68;4.10;;;;;;;0.53;57.61;100104.66;4973106;28;20049;-76
2023/03/12 04:28:40;;;;;;;4.85;3.88;;;;;;;0.51;57.36;100105.59;4956985;28;20039;-76
2023/03/12 04:31:09;;;;;;;5.35;4.18;;;;;;;0.50;57.61;100090.72;4972886;28;20177;-76
2023/03/12 04:33:39;;;;;;;5.45;4.40;;;;;;;0.55;57.30;100102.81;4989395;28;20050;-77
2023/03/12 04:36:07;;;;;;;7.50;4.53;;;;;;;0.64;57.80;100105.22;4957202;28;20391;-78
2023/03/12 04:38:34;;;;;;;7.47;4.30;;;;;;;0.72;57.40;100113.75;4972824;28;20094;-77
2023/03/12 04:41:07;;;;;;;7.00;4.80;;;;;;;0.78;57.02;100122.38;4953146;28;20047;-76
2023/03/12 04:43:35;;;;;;;5.85;4.60;;;;;;;0.79;56.40;100113.56;4969316;28;20044;-75
2023/03/12 04:46:02;;;;;;;7.13;4.95;;;;;;;0.85;56.48;100116.03;4969561;28;20114;-76
2023/03/12 04:48:28;;;;;;;8.13;5.80;;;;;;;0.77;56.07;100115.41;4922431;28;20043;-76
2023/03/12 04:50:54;;;;;;;20.58;6.13;;;;;;;0.79;56.37;100118.84;4956817;28;20039;-76
2023/03/12 04:53:20;;;;;;;18.67;6.50;;;;;;;0.77;55.99;100120.66;4956217;28;20047;-78
2023/03/12 04:55:48;;;;;;;11.35;6.75;;;;;;;0.77;56.35;100110.13;4972381;28;20035;-76
2023/03/12 04:58:15;;;;;;;11.30;7.32;;;;;;;0.79;56.70;100098.66;4972435;28;20055;-76
2023/03/12 05:00:41;;;;;;;12.55;7.97;;;;;;;0.77;55.62;100105.72;4971593;28;20046;-77
2023/03/12 05:03:08;;;;;;;14.52;7.47;;;;;;;0.72;55.66;100103.22;4956713;28;20053;-77
2023/03/12 05:05:34;;;;;;;11.85;6.95;;;;;;;0.69;56.33;100100.69;4972346;28;20137;-76
2023/03/12 05:08:02;;;;;;;17.17;7.30;;;;;;;0.73;56.07;100104.94;4973772;28;20059;-76
2023/03/12 05:10:29;;;;;;;12.85;7.30;;;;;;;0.77;56.27;100095.19;4973119;28;20050;-76
2023/03/12 05:12:55;;;;;;;15.85;6.95;;;;;;;0.97;56.24;100107.78;4956084;28;20035;-76
2023/03/12 05:15:21;;;;;;;14.27;7.03;;;;;;;1.10;56.21;100109.19;4972100;28;20526;-75
2023/03/12 05:17:50;;;;;;;33.00;8.18;;;;;;;1.09;55.42;100102.19;4973505;28;20364;-75
2023/03/12 05:20:17;;;;;;;14.98;6.72;;;;;;;1.18;55.04;100107.19;4930639;28;1204744;-77
2023/03/12 05:22:45;;;;;;;12.05;7.40;;;;;;;1.33;55.20;100116.41;4972742;28;20078;-77
2023/03/12 05:25:11;;;;;;;10.57;7.30;;;;;;;1.39;55.28;100113.59;4989558;28;20140;-76
2023/03/12 05:27:38;;;;;;;16.90;7.13;;;;;;;1.43;54.77;100112.59;4957264;28;20398;-76
2023/03/12 05:30:05;;;;;;;13.32;6.60;;;;;;;1.49;54.61;100110.66;4973485;28;20055;-79
2023/03/12 05:32:32;;;;;;;12.20;7.10;;;;;;;1.61;54.85;100100.59;4973292;28;20050;-76
2023/03/12 05:34:58;;;;;;;9.73;5.70;;;;;;;1.74;54.32;100106.38;4989836;28;20066;-79
2023/03/12 05:37:24;;;;;;;12.63;6.28;;;;;;;1.91;54.10;100105.81;4973379;28;20054;-77
2023/03/12 05:39:53;;;;;;;8.48;5.63;;;;;;;1.99;53.33;100102.91;4973432;28;20039;-78
2023/03/12 05:42:19;;;;;;;9.68;5.70;;;;;;;2.10;53.51;100099.00;4973127;28;20047;-77
2023/03/12 05:44:45;;;;;;;10.68;5.72;;;;;;;2.32;53.33;100107.06;4957113;28;20043;-77
2023/03/12 05:47:15;;;;;;;11.27;5.70;;;;;;;2.48;52.90;100099.47;4957372;28;20414;-77
2023/03/12 05:49:43;;;;;;;8.95;5.10;;;;;;;2.72;52.71;100102.19;4989354;28;20042;-76
2023/03/12 05:52:10;;;;;;;8.98;5.60;;;;;;;2.86;52.35;100105.22;4972996;28;20073;-76
2023/03/12 05:54:36;;;;;;;9.98;5.88;;;;;;;3.01;52.41;100095.84;4956798;28;20484;-77
2023/03/12 05:57:04;;;;;;;11.00;5.75;;;;;;;3.19;51.18;100107.50;4972992;28;20162;-76
2023/03/12 05:59:29;;;;;;;9.48;5.82;;;;;;;3.24;50.48;100111.72;4972902;28;20078;-78
2023/03/12 06:01:56;;;;;;;15.68;6.20;;;;;;;3.27;50.80;100100.16;4988765;28;20043;-75
2023/03/12 06:04:22;;;;;;;10.68;5.38;;;;;;;3.35;50.66;100092.81;4989048;28;20047;-75
2023/03/12 06:06:48;;;;;;;19.95;5.85;;;;;;;3.34;49.95;100101.63;4972762;28;20133;-78
2023/03/12 06:09:14;;;;;;;8.85;5.70;;;;;;;3.29;49.71;100100.97;4956665;28;20097;-78
2023/03/12 06:11:41;;;;;;;13.05;5.40;;;;;;;3.17;49.88;100092.56;4957318;28;20057;-77
2023/03/12 06:14:07;;;;;;;10.90;5.47;;;;;;;3.10;49.75;100093.72;4972874;28;20043;-76
2023/03/12 06:16:34;;;;;;;12.88;6.03;;;;;;;3.20;50.21;100096.91;4972652;28;20047;-77
2023/03/12 06:19:02;;;;;;;11.32;6.95;;;;;;;3.36;49.93;100097.16;4956499;28;20065;-76
2023/03/12 06:21:34;;;;;;;13.10;6.38;;;;;;;3.61;50.55;100092.66;4972374;28;20082;-77
2023/03/12 06:24:01;;;;;;;11.93;6.68;;;;;;;3.73;49.74;100103.66;4988679;28;20093;-76
2023/03/12 06:26:55;;;;;;;11.95;6.07;;;;;;;4.05;49.19;100116.44;4953014;28;20053;-76
2023/03/12 06:29:21;;;;;;;9.35;5.75;;;;;;;4.13;49.06;100108.19;4940395;28;20042;-75
2023/03/12 06:31:50;;;;;;;8.60;6.07;;;;;;;4.20;48.47;100098.22;4956515;28;20482;-77
2023/03/12 06:34:17;;;;;;;10.60;6.75;;;;;;;4.24;48.12;100105.09;4957043;28;20049;-76
2023/03/12 06:36:43;;;;;;;9.95;5.82;;;;;;;4.33;48.72;100104.72;4992494;28;20054;-79
2023/03/12 06:39:09;;;;;;;11.40;5.72;;;;;;;4.34;47.75;100101.16;4944437;28;20042;-76
2023/03/12 06:41:35;;;;;;;10.38;5.88;;;;;;;4.38;47.78;100113.31;4959618;28;20069;-76
2023/03/12 06:44:04;;;;;;;9.95;6.57;;;;;;;4.62;47.89;100106.09;4960205;28;20058;-77
2023/03/12 06:46:31;;;;;;;20.63;6.68;;;;;;;4.74;47.14;100115.28;4977480;28;20058;-78
2023/03/12 06:48:57;;;;;;;12.32;7.30;;;;;;;4.79;47.18;100108.03;4978011;28;20097;-78
2023/03/12 06:51:23;;;;;;;13.35;7.20;;;;;;;4.95;47.26;100118.81;4977913;28;20035;-77
2023/03/12 06:53:49;;;;;;;14.65;7.18;;;;;;;5.13;47.19;100117.97;4961284;28;20051;-77
2023/03/12 06:56:15;;;;;;;10.85;7.72;;;;;;;4.99;46.63;100110.63;4992860;28;20039;-76
2023/03/12 06:58:41;;;;;;;15.07;6.82;;;;;;;5.16;47.23;100117.84;4961088;28;20054;-78
2023/03/12 07:01:07;;;;;;;17.20;6.70;;;;;;;5.35;46.00;100112.56;4976223;28;20043;-75
2023/03/12 07:03:33;;;;;;;11.50;6.65;;;;;;;5.56;46.49;100105.38;4972627;28;20046;-77
2023/03/12 07:06:00;;;;;;;16.85;8.57;;;;;;;5.63;46.80;100114.75;4958428;29;20047;-76
2023/03/12 07:08:30;;;;;;;12.50;7.50;;;;;;;5.90;46.01;100109.91;4964371;28;20083;-76
2023/03/12 07:10:59;;;;;;;9.68;6.80;;;;;;;6.16;45.48;100100.72;4962556;28;20055;-76
2023/03/12 07:13:24;;;;;;;13.77;8.20;;;;;;;6.31;45.31;100099.09;4975709;28;20042;-75
2023/03/12 07:15:50;;;;;;;11.55;8.10;;;;;;;6.50;44.78;100110.50;4943556;28;20150;-78
2023/03/12 07:18:16;;;;;;;11.00;7.90;;;;;;;6.46;44.82;100114.25;4975331;28;20038;-77
2023/03/12 07:20:43;;;;;;;15.85;7.68;;;;;;;6.53;44.31;100109.50;4958369;28;20054;-78
2023/03/12 07:23:09;;;;;;;13.60;7.90;;;;;;;6.59;44.65;100105.69;4959155;28;20082;-77
2023/03/12 07:25:37;;;;;;;16.80;8.55;;;;;;;6.74;44.59;100107.53;4959778;28;20432;-77
2023/03/12 07:28:04;;;;;;;14.07;7.55;;;;;;;6.92;44.14;100114.56;4959016;28;20046;-80
2023/03/12 07:30:32;;;;;;;12.98;6.60;;;;;;;7.10;43.83;100095.88;4959054;28;20046;-80
2023/03/12 07:33:03;;;;;;;10.67;7.23;;;;;;;7.29;43.30;100096.59;4959347;28;20182;-78
2023/03/12 07:35:30;;;;;;;9.55;7.13;;;;;;;7.43;43.26;100096.72;4975366;28;20053;-76
2023/03/12 07:37:57;;;;;;;9.13;6.38;;;;;;;7.64;43.02;100099.16;4976092;28;20047;-75
2023/03/12 07:40:23;;;;;;;9.77;6.50;;;;;;;7.57;41.80;100092.44;4974481;28;20046;-75
2023/03/12 07:42:52;;;;;;;12.43;7.05;;;;;;;7.27;42.05;100090.53;4977039;28;20046;-80
2023/03/12 07:45:18;;;;;;;;;;;;;;;7.47;42.40;100084.97;4959252;28;20050;-78
2023/03/12 07:47:44;;;;;;;21.83;7.72;;;;;;;7.68;42.80;100100.69;4974801;28;19922;-76
2023/03/12 07:50:11;;;;;;;10.88;7.03;;;;;;;7.92;42.39;100099.28;4974523;28;20057;-76
2023/03/12 07:52:37;;;;;;;11.60;7.80;;;;;;;8.01;41.91;100100.56;4975081;28;20050;-77
2023/03/12 07:55:03;;;;;;;11.30;7.72;;;;;;;7.96;42.00;100097.31;4974875;28;20045;-76
2023/03/12 07:57:29;;;;;;;10.82;7.57;;;;;;;8.21;41.33;100099.44;4991388;28;20050;-76
2023/03/12 07:59:55;;;;;;;10.43;8.25;;;;;;;8.11;41.49;100093.75;4991051;28;20070;-77
2023/03/12 08:02:21;;;;;;;12.93;7.53;;;;;;;8.13;41.55;100101.69;4958877;28;20081;-76
2023/03/12 08:04:47;;;;;;;14.10;7.25;;;;;;;8.22;40.88;100107.31;4974449;28;20418;-76
2023/03/12 08:07:13;;;;;;;21.58;8.68;;;;;;;8.32;41.14;100107.66;4974878;28;20046;-75
2023/03/12 08:09:39;;;;;;;15.07;8.02;;;;;;;8.52;41.35;100114.50;4976259;28;20046;-76
2023/03/12 08:12:06;;;;;;;18.58;10.18;;;;;;;8.58;40.79;100114.13;4975703;28;20047;-77
2023/03/12 08:14:33;;;;;;;18.70;9.38;;;;;;;8.66;40.69;100111.00;4958926;28;20089;-74
2023/03/12 08:16:59;;;;;;;20.02;9.73;;;;;;;8.57;40.54;100111.53;4958480;28;20395;-75
2023/03/12 08:19:25;;;;;;;16.83;8.00;;;;;;;8.56;41.10;100104.50;4990364;28;20046;-76
2023/03/12 08:21:52;;;;;;;11.00;7.60;;;;;;;8.82;39.96;100106.47;4990532;28;20067;-77
2023/03/12 08:24:19;;;;;;;12.55;6.32;;;;;;;8.82;39.56;100101.13;4974088;28;20074;-76
2023/03/12 08:26:45;;;;;;;9.30;5.95;;;;;;;8.95;39.33;100101.22;4974033;28;20130;-76
2023/03/12 08:29:11;;;;;;;10.48;6.15;;;;;;;9.08;39.40;100088.03;4975549;28;20469;-77
2023/03/12 08:31:37;;;;;;;13.00;6.03;;;;;;;9.20;39.83;100095.25;4974587;28;20125;-79
2023/03/12 08:34:03;;;;;;;13.20;5.93;;;;;;;9.43;39.43;100096.47;4973970;28;20081;-79
2023/03/12 08:36:29;;;;;;;9.55;6.65;;;;;;;9.33;38.82;100101.56;4974590;28;20042;-76
2023/03/12 08:38:54;;;;;;;12.70;6.47;;;;;;;9.28;39.33;100087.63;4958116;28;20046;-75
2023/03/12 08:41:21;;;;;;;16.02;8.05;;;;;;;9.58;39.26;100089.31;4957686;28;20415;-76
2023/03/12 08:43:46;;;;;;;10.60;6.45;;;;;;;9.71;38.85;100090.25;4974210;28;20085;-76
2023/03/12 08:46:13;;;;;;;15.15;7.80;;;;;;;9.78;38.46;100086.22;4957911;28;20461;-76
2023/03/12 08:48:39;;;;;;;17.15;7.00;;;;;;;9.85;38.35;100092.84;4968233;28;20542;-77
2023/03/12 08:51:06;;;;;;;13.90;7.38;;;;;;;9.97;38.19;100092.06;4972311;28;20125;-76
2023/03/12 08:53:34;;;;;;;15.60;7.32;;;;;;;10.22;38.33;100096.63;4981009;28;20501;-77
2023/03/12 08:56:02;;;;;;;16.40;6.53;;;;;;;10.34;37.55;100095.03;4944617;28;20117;-77
2023/03/12 08:58:28;;;;;;;16.52;6.57;;;;;;;10.50;38.08;100099.31;4954128;28;20856;-75
2023/03/12 09:00:55;;;;;;;13.80;7.38;;;;;;;10.64;37.57;100086.75;4971253;28;20079;-76
2023/03/12 09:03:22;;;;;;;13.32;5.70;;;;;;;10.74;36.90;100086.09;4965645;28;20042;-78
2023/03/12 09:05:50;;;;;;;11.13;6.22;;;;;;;10.87;35.61;100076.25;4962414;28;20125;-76
2023/03/12 09:08:16;;;;;;;11.52;6.05;;;;;;;10.84;36.34;100082.69;4966450;28;20046;-78
2023/03/12 09:10:51;;;;;;;13.10;6.85;;;;;;;10.75;35.37;100077.09;4965885;28;20050;-76
2023/03/12 09:13:17;;;;;;;13.90;7.20;;;;;;;10.88;36.25;100078.81;4970040;28;20042;-77
2023/03/12 09:15:42;;;;;;;11.73;5.38;;;;;;;10.86;36.92;100072.72;4955511;28;20050;-76
2023/03/12 09:18:08;;;;;;;9.25;5.43;;;;;;;10.98;35.81;100073.66;4962281;28;20637;-76
2023/03/12 09:20:34;;;;;;;10.57;4.72;;;;;;;11.19;36.01;100076.66;4965807;28;20142;-77
2023/03/12 09:23:03;;;;;;;24.67;4.57;;;;;;;11.38;35.34;100077.06;4962226;28;20074;-77
2023/03/12 09:25:29;;;;;;;8.02;4.07;;;;;;;11.25;35.59;100070.91;4971370;28;20038;-77
2023/03/12 09:27:55;;;;;;;10.02;4.53;;;;;;;11.52;35.47;100069.88;4961196;28;20494;-75
2023/03/12 09:30:22;;;;;;;8.30;3.83;;;;;;;11.50;34.52;100069.13;4955278;28;20051;-76
2023/03/12 09:32:48;;;;;;;5.10;3.28;;;;;;;11.45;34.16;100069.47;4986290;28;20039;-76
2023/03/12 09:35:17;;;;;;;6.78;3.10;;;;;;;11.72;34.21;100069.28;4938236;29;20050;-75
2023/03/12 09:37:50;;;;;;;7.28;3.30;;;;;;;12.03;34.25;100061.66;4938047;29;20495;-76
2023/03/12 09:40:22;;;;;;;6.25;3.65;;;;;;;11.98;33.76;100061.16;4955357;29;20502;-75
2023/03/12 09:42:57;;;;;;;16.63;3.35;;;;;;;11.67;33.89;100061.56;4938903;29;20133;-76
2023/03/12 09:45:26;;;;;;;8.40;3.25;;;;;;;11.86;34.30;100061.13;4954963;28;20429;-76
2023/03/12 09:47:59;;;;;;;3.60;3.25;;;;;;;12.18;33.92;100057.84;4971831;28;20050;-77
2023/03/12 09:50:38;;;;;;;6.55;3.50;;;;;;;12.47;33.13;100062.84;4956817;28;20046;-76
2023/03/12 09:53:23;;;;;;;;;;;;;;;12.68;32.88;100058.50;4957917;28;20042;-76
2023/03/12 09:55:52;;;;;;;5.70;4.07;;;;;;;12.72;33.15;100059.13;4936955;28;20344;-78
2023/03/12 09:58:29;;;;;;;8.45;4.05;;;;;;;12.68;33.16;100036.19;4973204;28;20054;-77
2023/03/12 10:01:25;;;;;;;12.75;6.00;;;;;;;12.57;32.41;100051.28;4972642;28;20054;-75
2023/03/12 10:04:00;;;;;;;10.90;4.70;;;;;;;12.61;32.62;100046.53;4936862;28;20071;-77
2023/03/12 10:06:44;;;;;;;11.18;5.28;;;;;;;12.28;33.39;100029.38;4953549;28;20046;-76
2023/03/12 10:09:19;;;;;;;11.75;5.75;;;;;;;12.00;33.82;100032.41;4974002;28;20081;-76
2023/03/12 10:12:06;;;;;;;13.23;5.07;;;;;;;11.76;33.63;100030.56;4940919;28;20057;-76
2023/03/12 10:14:37;;;;;;;9.75;4.97;;;;;;;12.14;34.73;100032.25;4972693;28;20061;-76
2023/03/12 10:17:44;;;;;;;9.48;4.50;;;;;;;12.48;33.67;100029.66;4972444;28;20081;-77
2023/03/12 10:20:25;;;;;;;7.93;3.83;;;;;;;12.78;33.31;100032.66;4918006;29;20090;-75
2023/03/12 10:23:09;;;;;;;8.13;4.43;;;;;;;12.36;33.10;100026.13;4904611;29;20051;-77
2023/03/12 10:25:47;;;;;;;8.68;4.28;;;;;;;11.96;33.74;100029.16;4928210;28;20046;-76
2023/03/12 10:28:17;;;;;;;8.25;5.25;;;;;;;11.81;34.98;100022.19;4972350;28;20046;-77
2023/03/12 10:30:58;;;;;;;6.80;4.63;;;;;;;11.85;34.45;100032.63;4973410;28;20113;-77
2023/03/12 10:33:35;;;;;;;8.73;4.80;;;;;;;12.04;34.88;100025.88;4972662;28;20074;-75
2023/03/12 10:36:11;;;;;;;10.70;4.63;;;;;;;12.12;34.33;100024.34;4972285;28;20065;-77
2023/03/12 10:38:37;;;;;;;9.07;4.43;;;;;;;12.82;33.89;100033.28;4972645;28;20545;-77
2023/03/12 10:41:13;;;;;;;8.65;4.30;;;;;;;13.08;32.65;100032.06;4972490;28;20113;-80
2023/03/12 10:43:40;;;;;;;6.85;4.85;;;;;;;12.79;32.73;100017.44;4956489;28;20042;-77
2023/03/12 10:46:36;;;;;;;5.93;4.20;;;;;;;12.28;32.80;100013.28;4956212;28;20129;-77
2023/03/12 10:49:22;;;;;;;8.27;3.65;;;;;;;12.54;32.22;100013.13;4973746;28;20421;-76
2023/03/12 10:51:58;;;;;;;5.45;3.60;;;;;;;12.51;31.95;100005.31;4956165;28;20142;-75
2023/03/12 10:58:23;;;;;;;4.45;3.05;;;;;;;11.69;31.78;100007.88;4972294;28;20101;-75
2023/03/12 11:00:58;;;;;;;6.93;3.20;;;;;;;11.59;34.59;100004.19;4973523;28;20078;-77
2023/03/12 11:03:25;;;;;;;4.32;3.20;;;;;;;11.98;32.56;100012.94;4955568;28;20490;-77
2023/03/12 11:05:53;;;;;;;4.95;2.75;;;;;;;11.70;31.75;100006.94;4955844;28;20042;-76
2023/03/12 11:08:28;;;;;;;5.10;3.33;;;;;;;11.82;32.13;100003.34;4973613;28;20050;-75
2023/03/12 11:10:55;;;;;;;4.95;3.03;;;;;;;11.65;31.90;99998.38;4956373;28;20047;-76
2023/03/12 11:13:25;;;;;;;6.57;3.72;;;;;;;11.82;32.68;99989.94;4972640;28;20071;-75
2023/03/12 11:15:53;;;;;;;5.38;2.47;;;;;;;11.87;31.97;99992.31;4972304;28;20109;-76
2023/03/12 11:18:26;;;;;;;3.05;2.55;;;;;;;12.07;32.02;99994.34;4971965;28;20046;-76
2023/03/12 11:21:11;;;;;;;4.90;2.60;;;;;;;11.91;31.48;100000.00;4973241;28;20117;-77
2023/03/12 11:23:56;;;;;;;7.97;3.10;;;;;;;11.86;31.64;99998.66;4958604;28;20109;-76
2023/03/12 11:26:27;;;;;;;3.65;2.83;;;;;;;11.94;31.99;99998.06;4980030;28;20171;-75
2023/03/12 11:29:38;;;;;;;3.03;2.35;;;;;;;11.98;31.19;99994.19;4956133;28;20564;-78
2023/03/12 11:32:22;;;;;;;3.08;2.72;;;;;;;11.87;31.32;100000.34;4951449;28;20043;-78
2023/03/12 11:34:50;;;;;;;3.08;2.45;;;;;;;12.09;31.78;100003.13;4956368;28;20054;-76
2023/03/12 11:37:24;;;;;;;5.45;2.92;;;;;;;12.33;30.69;100000.38;4975653;28;20100;-77